Time;durP1;ratioP1;P1;durP2;ratioP2;P2;SDS_P1;SDS_P2;PMS_P1;PMS_P2;Temp;Humidity;BMP_temperature;BMP_pressure;BME280_temperature;BME280_humidity;BME280_pressure;Samples;Min_cycle;Max_cycle;Signal;HPM_P1;HPM_P2
2022/06/27 05:41:03;;;;;;;3.95;2.52;;;;;;;19.42;88.97;98525.99;1827407;78;20947;-61
2022/06/27 05:45:16;;;;;;;4.45;2.75;;;;;;;19.77;87.60;98524.50;1890544;76;22634;-65
2022/06/27 05:47:46;;;;;;;10.03;2.90;;;;;;;19.92;86.74;98529.29;1847243;77;20860;-63
2022/06/27 05:50:21;;;;;;;5.90;2.58;;;;;;;20.17;85.78;98533.61;1856776;77;21473;-62
2022/06/27 05:52:49;;;;;;;5.67;2.42;;;;;;;20.41;84.42;98528.20;1856360;77;20974;-65
2022/06/27 05:55:16;;;;;;;6.05;2.70;;;;;;;20.65;82.46;98527.94;1860252;77;21485;-64
2022/06/27 05:57:44;;;;;;;5.17;2.80;;;;;;;20.86;81.34;98529.94;1859801;77;20892;-65
2022/06/27 06:00:13;;;;;;;6.08;2.67;;;;;;;21.06;80.25;98531.72;1859503;77;20993;-60
2022/06/27 06:02:42;;;;;;;7.78;2.70;;;;;;;21.26;79.02;98536.20;1858233;77;21113;-64
2022/06/27 06:05:12;;;;;;;4.78;2.42;;;;;;;21.45;78.00;98538.27;1826670;78;20963;-64
2022/06/27 06:07:39;;;;;;;6.33;2.83;;;;;;;21.62;77.26;98533.28;1840743;77;20916;-63
2022/06/27 06:10:07;;;;;;;8.30;2.50;;;;;;;21.78;76.75;98533.33;1860040;77;21504;-64
2022/06/27 06:12:35;;;;;;;3.05;2.33;;;;;;;21.95;76.33;98534.36;1826085;77;21013;-62
2022/06/27 06:15:04;;;;;;;3.80;2.60;;;;;;;22.08;74.64;98529.62;1859873;77;21558;-63
2022/06/27 06:17:33;;;;;;;3.77;2.35;;;;;;;22.19;73.65;98529.30;1859541;77;20966;-57
2022/06/27 06:20:00;;;;;;;2.90;2.60;;;;;;;22.31;72.88;98534.66;1852835;77;21563;-63
2022/06/27 06:22:26;;;;;;;6.03;2.62;;;;;;;22.41;71.75;98533.56;1773853;80;20897;-59
2022/06/27 06:24:53;;;;;;;4.60;2.30;;;;;;;22.51;71.14;98533.59;1783060;80;21489;-61
2022/06/27 06:27:21;;;;;;;3.62;2.40;;;;;;;22.61;70.60;98539.88;1800558;78;21077;-61
2022/06/27 06:29:47;;;;;;;5.15;2.30;;;;;;;22.71;69.99;98539.33;1799627;78;21548;-62
2022/06/27 06:32:15;;;;;;;4.20;2.72;;;;;;;22.81;69.62;98536.05;1805187;78;20996;-59
2022/06/27 06:34:43;;;;;;;6.22;2.70;;;;;;;22.91;69.67;98541.53;1800866;78;20966;-59
2022/06/27 06:37:14;;;;;;;6.50;2.65;;;;;;;22.98;69.33;98542.48;1804891;78;20998;-59
2022/06/27 06:39:45;;;;;;;4.15;2.70;;;;;;;23.06;69.03;98541.47;1799468;79;21141;-63
2022/06/27 06:42:14;;;;;;;4.65;2.60;;;;;;;23.15;69.14;98537.94;1774905;80;20971;-61
2022/06/27 06:44:49;;;;;;;5.80;2.70;;;;;;;23.22;67.88;98537.89;1774506;80;20965;-58
2022/06/27 06:47:26;;;;;;;6.78;2.90;;;;;;;23.31;67.62;98537.09;1776064;80;21282;-61
2022/06/27 06:49:55;;;;;;;6.33;2.92;;;;;;;23.42;67.43;98536.17;1779091;79;21148;-61
2022/06/27 06:52:21;;;;;;;6.67;2.72;;;;;;;23.50;67.48;98529.70;1828921;77;21346;-58
2022/06/27 06:54:48;;;;;;;4.40;2.60;;;;;;;23.56;67.52;98532.34;1833100;77;21598;-57
2022/06/27 06:57:22;;;;;;;5.53;2.50;;;;;;;23.64;67.37;98534.64;1831515;77;21019;-59
2022/06/27 06:59:51;;;;;;;3.33;2.45;;;;;;;23.69;67.10;98538.45;1832756;77;21406;-57
2022/06/27 07:02:19;;;;;;;5.42;2.62;;;;;;;23.77;66.25;98532.73;1830683;77;21461;-58
2022/06/27 07:04:49;;;;;;;6.45;2.58;;;;;;;23.86;65.86;98537.95;1828527;77;21193;-61
2022/06/27 07:07:20;;;;;;;4.90;2.60;;;;;;;23.96;66.27;98540.09;1833975;77;21019;-61
2022/06/27 07:09:49;;;;;;;4.85;2.55;;;;;;;24.07;65.88;98544.42;1824825;77;21105;-61
2022/06/27 07:12:17;;;;;;;4.65;2.62;;;;;;;24.15;65.17;98547.48;1820679;77;21598;-60
2022/06/27 07:14:45;;;;;;;10.00;2.90;;;;;;;24.24;65.39;98546.08;1836900;77;21050;-61
2022/06/27 07:17:12;;;;;;;5.75;2.42;;;;;;;24.33;64.89;98545.84;1829785;77;21073;-60
2022/06/27 07:19:39;;;;;;;6.42;2.60;;;;;;;24.40;64.15;98554.17;1830115;77;21044;-59
2022/06/27 07:22:08;;;;;;;5.30;2.72;;;;;;;24.45;62.70;98552.45;1839134;77;21550;-58
2022/06/27 07:24:36;;;;;;;4.80;2.30;;;;;;;24.49;62.54;98548.62;1839148;77;21516;-62
2022/06/27 07:27:03;;;;;;;5.40;3.00;;;;;;;24.55;62.85;98551.05;1840555;77;21891;-60
2022/06/27 07:29:31;;;;;;;5.95;2.70;;;;;;;24.61;62.64;98555.06;1828238;77;21573;-64
2022/06/27 07:31:59;;;;;;;3.52;2.37;;;;;;;24.67;62.62;98553.00;1834576;77;21010;-63
2022/06/27 07:34:26;;;;;;;4.15;2.27;;;;;;;24.74;61.53;98555.05;1837123;77;21039;-66
2022/06/27 07:36:52;;;;;;;2.70;2.17;;;;;;;24.78;60.75;98558.08;1831709;77;21475;-60
2022/06/27 07:39:19;;;;;;;5.70;2.55;;;;;;;24.81;60.81;98546.96;1831389;77;21112;-62
2022/06/27 07:41:49;;;;;;;2.50;2.22;;;;;;;24.86;61.01;98554.86;1839509;77;21108;-59
2022/06/27 07:44:15;;;;;;;4.72;2.15;;;;;;;24.95;61.27;98551.27;1834807;77;20872;-65
2022/06/27 07:46:43;;;;;;;6.55;2.62;;;;;;;25.00;60.41;98552.31;1843706;77;21022;-64
2022/06/27 07:49:09;;;;;;;8.93;2.10;;;;;;;25.08;60.96;98551.27;1844415;77;21663;-64
2022/06/27 07:51:36;;;;;;;4.65;2.35;;;;;;;25.16;61.72;98557.03;1768897;80;21112;-59
2022/06/27 07:54:03;;;;;;;3.08;2.15;;;;;;;25.25;60.55;98556.16;1776927;79;22104;-60
2022/06/27 07:56:30;;;;;;;2.83;2.27;;;;;;;25.30;59.58;98553.09;1769772;80;21021;-59
2022/06/27 07:58:56;;;;;;;3.85;2.25;;;;;;;25.37;58.84;98557.29;1772477;80;21140;-57
2022/06/27 08:01:23;;;;;;;4.40;2.00;;;;;;;25.44;59.62;98556.61;1773612;80;21130;-59
2022/06/27 08:03:50;;;;;;;3.90;2.10;;;;;;;25.50;58.35;98557.30;1767381;80;21098;-59
2022/06/27 08:06:23;;;;;;;3.22;2.20;;;;;;;25.57;56.04;98560.69;1765817;80;21766;-61
2022/06/27 08:08:55;;;;;;;3.30;2.05;;;;;;;25.59;55.15;98554.24;1767230;80;21039;-57
2022/06/27 08:11:25;;;;;;;4.60;2.10;;;;;;;25.60;55.71;98564.83;1767654;80;21058;-58
2022/06/27 08:13:54;;;;;;;2.83;1.90;;;;;;;25.65;55.46;98562.33;1777967;80;21079;-64
2022/06/27 08:16:22;;;;;;;3.90;1.85;;;;;;;25.66;55.66;98561.97;1801532;79;21082;-64
2022/06/27 08:18:50;;;;;;;3.70;2.00;;;;;;;25.68;55.29;98556.89;1791415;79;21172;-65
2022/06/27 08:21:20;;;;;;;5.12;2.35;;;;;;;25.74;55.45;98558.73;1783284;79;21055;-63
2022/06/27 08:23:48;;;;;;;3.17;2.08;;;;;;;25.79;55.05;98557.02;1782214;79;21395;-59
2022/06/27 08:26:14;;;;;;;3.30;2.10;;;;;;;25.86;54.72;98563.16;1785705;79;21003;-62
2022/06/27 08:28:42;;;;;;;3.20;2.08;;;;;;;25.91;55.29;98557.33;1802794;79;21026;-57
2022/06/27 08:31:11;;;;;;;6.28;1.87;;;;;;;25.96;55.44;98548.73;1795411;79;21262;-62
2022/06/27 08:33:46;;;;;;;7.80;2.27;;;;;;;26.07;56.09;98557.88;1797094;79;20982;-65
2022/06/27 08:36:14;;;;;;;2.67;2.10;;;;;;;26.22;56.31;98558.22;1771882;80;21042;-64
2022/06/27 08:38:48;;;;;;;6.25;2.42;;;;;;;26.41;55.45;98553.86;1774989;80;21016;-61
2022/06/27 08:41:12;;;;;;;5.90;2.25;;;;;;;26.41;55.45;98553.86;1774816;80;21023;-58
2022/06/27 08:43:40;;;;;;;2.58;1.90;;;;;;;26.41;55.24;98562.10;1767345;80;21594;-58
2022/06/27 08:46:15;;;;;;;3.90;2.20;;;;;;;26.30;55.32;98556.55;1807372;79;20934;-59
2022/06/27 08:48:42;;;;;;;4.83;2.10;;;;;;;26.22;55.90;98562.33;1802677;78;21383;-62
2022/06/27 08:51:13;;;;;;;2.87;2.30;;;;;;;26.19;55.34;98565.86;1779202;78;21019;-60
2022/06/27 08:53:41;;;;;;;4.17;2.00;;;;;;;26.24;56.13;98559.99;1780092;79;21089;-61
2022/06/27 08:56:16;;;;;;;5.12;1.90;;;;;;;26.43;55.62;98562.50;1780130;79;21108;-65
2022/06/27 08:58:42;;;;;;;3.92;1.95;;;;;;;26.62;53.00;98573.25;1780735;79;20931;-62
2022/06/27 09:01:09;;;;;;;1.85;1.57;;;;;;;26.79;51.65;98561.63;1781934;80;20995;-60
2022/06/27 09:03:36;;;;;;;2.02;1.77;;;;;;;26.89;51.40;98563.66;1793018;80;21070;-56
2022/06/27 09:06:06;;;;;;;1.85;1.60;;;;;;;27.00;51.41;98559.00;1773116;80;21139;-60
2022/06/27 09:08:36;;;;;;;3.33;1.98;;;;;;;27.05;51.37;98560.02;1761107;81;21090;-58
2022/06/27 09:11:03;;;;;;;3.83;2.10;;;;;;;27.12;50.96;98557.88;1780397;80;21000;-66
2022/06/27 09:13:30;;;;;;;2.95;1.80;;;;;;;27.14;50.95;98559.07;1778829;80;21542;-62
2022/06/27 09:16:00;;;;;;;5.35;1.77;;;;;;;27.09;51.83;98561.39;1781246;80;20904;-60
2022/06/27 09:18:31;;;;;;;3.40;1.75;;;;;;;26.96;52.28;98560.95;1781168;79;21080;-63
2022/06/27 09:21:09;;;;;;;8.38;2.25;;;;;;;26.87;51.95;98558.34;1770661;80;22453;-59
2022/06/27 09:23:51;;;;;;;4.12;1.85;;;;;;;26.88;52.98;98558.52;1769219;80;21010;-65
2022/06/27 09:26:25;;;;;;;4.00;2.25;;;;;;;27.02;53.50;98552.53;1782348;80;21008;-59
2022/06/27 09:29:08;;;;;;;5.20;2.30;;;;;;;27.25;53.15;98552.23;1771327;80;20982;-58
2022/06/27 09:31:42;;;;;;;;;;;;;;;27.47;53.19;98549.01;1776589;79;21073;-63
2022/06/27 09:34:20;;;;;;;2.98;1.80;;;;;;;27.67;52.08;98541.42;1774251;80;21100;-57
2022/06/27 09:37:01;;;;;;;2.17;1.90;;;;;;;27.78;51.07;98544.19;1777875;80;21040;-59
2022/06/27 09:39:36;;;;;;;4.10;1.77;;;;;;;27.90;50.26;98541.64;1773077;79;20977;-59
2022/06/27 09:42:07;;;;;;;;;;;;;;;27.97;49.22;98547.95;1789601;80;20972;-62
2022/06/27 09:44:42;;;;;;;3.35;1.77;;;;;;;28.00;49.28;98538.95;1773896;80;20110;-59
2022/06/27 09:47:19;;;;;;;2.20;1.75;;;;;;;28.01;49.38;98539.13;1828919;77;21256;-59
2022/06/27 09:49:52;;;;;;;2.70;1.50;;;;;;;28.04;48.04;98535.60;1841388;77;21000;-65
2022/06/27 09:52:24;;;;;;;3.15;1.70;;;;;;;28.07;48.18;98536.20;1834005;77;20904;-61
2022/06/27 09:54:53;;;;;;;2.98;1.52;;;;;;;28.12;47.69;98541.30;1841813;77;20976;-63
2022/06/27 09:57:20;;;;;;;5.35;1.70;;;;;;;28.19;47.40;98532.27;1855367;77;21097;-62
2022/06/27 09:59:50;;;;;;;4.90;1.95;;;;;;;28.25;47.46;98536.19;1856301;77;21276;-63
2022/06/27 10:02:21;;;;;;;7.92;1.80;;;;;;;28.29;47.46;98533.62;1844905;77;21465;-61
2022/06/27 10:04:48;;;;;;;3.47;1.60;;;;;;;28.34;47.11;98530.48;1834524;77;21070;-61
2022/06/27 10:07:16;;;;;;;1.85;1.40;;;;;;;28.43;48.05;98521.23;1830580;77;21060;-63
2022/06/27 10:09:43;;;;;;;2.52;1.60;;;;;;;28.51;46.09;98530.86;1834387;77;21089;-60
2022/06/27 10:12:27;;;;;;;1.92;1.57;;;;;;;28.54;45.57;98527.32;1835952;78;21108;-61
2022/06/27 10:15:19;;;;;;;2.55;1.50;;;;;;;28.60;46.72;98523.00;1834824;77;21556;-59
2022/06/27 10:17:49;;;;;;;4.58;1.60;;;;;;;28.53;45.83;98524.36;1836642;77;21256;-59
2022/06/27 10:20:32;;;;;;;2.70;1.65;;;;;;;28.45;46.54;98524.37;1832311;78;20964;-61
2022/06/27 10:23:31;;;;;;;3.08;1.50;;;;;;;28.40;46.61;98524.80;1817874;77;21479;-60
2022/06/27 10:25:57;;;;;;;3.52;1.70;;;;;;;28.36;46.24;98525.37;1834278;77;21223;-62
2022/06/27 10:28:24;;;;;;;4.17;1.35;;;;;;;28.39;46.03;98505.88;1831287;77;21517;-63
2022/06/27 10:30:57;;;;;;;3.47;1.40;;;;;;;28.48;45.95;98515.14;1856703;77;20911;-63
2022/06/27 10:33:29;;;;;;;2.92;1.60;;;;;;;28.57;45.37;98515.52;1836225;77;20978;-64
2022/06/27 10:36:11;;;;;;;3.45;1.40;;;;;;;28.63;45.28;98505.69;1828985;77;20912;-64
2022/06/27 10:38:49;;;;;;;2.35;1.92;;;;;;;28.66;44.82;98512.58;1822270;78;21140;-60
2022/06/27 10:41:24;;;;;;;4.97;1.60;;;;;;;28.70;45.25;98509.80;1823777;77;21439;-60
2022/06/27 10:43:54;;;;;;;2.98;1.67;;;;;;;28.71;45.10;98512.77;1824399;77;20956;-61
2022/06/27 10:46:26;;;;;;;2.27;1.55;;;;;;;28.65;44.74;98506.06;1826562;77;21150;-63
2022/06/27 10:48:55;;;;;;;1.87;1.52;;;;;;;28.56;44.91;98507.84;1827768;77;21053;-63
2022/06/27 10:51:32;;;;;;;2.67;1.47;;;;;;;28.45;44.49;98508.45;1820170;77;21605;-59
2022/06/27 10:54:09;;;;;;;6.90;1.95;;;;;;;28.39;44.25;98508.05;1833574;77;21471;-60
2022/06/27 10:56:53;;;;;;;3.02;1.60;;;;;;;28.41;43.77;98506.27;1820392;77;21647;-63
2022/06/27 10:59:26;;;;;;;3.12;1.62;;;;;;;28.50;43.26;98497.63;1817291;77;21008;-61
2022/06/27 11:02:07;;;;;;;2.67;1.65;;;;;;;28.52;43.21;98493.88;1817846;77;21096;-62
2022/06/27 11:04:36;;;;;;;4.12;1.72;;;;;;;28.58;44.87;98501.33;1811785;79;21116;-61
2022/06/27 11:07:08;;;;;;;3.65;1.85;;;;;;;28.64;44.67;98492.87;1825428;77;21011;-59
2022/06/27 11:09:45;;;;;;;4.10;1.62;;;;;;;28.72;44.60;98486.76;1842659;77;20961;-62
2022/06/27 11:12:14;;;;;;;3.37;1.60;;;;;;;28.81;44.71;98486.53;1833782;77;21097;-60
2022/06/27 11:14:58;;;;;;;2.20;1.25;;;;;;;28.89;45.04;98492.23;1822550;77;21041;-63
2022/06/27 11:17:39;;;;;;;2.27;1.30;;;;;;;28.92;43.80;98489.27;1837303;77;21101;-61
2022/06/27 11:20:25;;;;;;;1.50;1.25;;;;;;;28.95;43.15;98489.83;1823704;77;21377;-62
2022/06/27 11:22:58;;;;;;;2.95;1.32;;;;;;;29.01;43.88;98485.48;1808459;79;21015;-58
2022/06/27 11:25:27;;;;;;;3.77;1.35;;;;;;;29.15;44.37;98485.43;1828827;77;21447;-62
2022/06/27 11:31:57;;;;;;;5.60;1.45;;;;;;;29.33;43.77;98482.01;1813857;77;20977;-61
2022/06/27 11:33:25;;;;;;;1.45;1.27;;;;;;;29.87;43.71;98487.41;1827941;77;20936;-55
2022/06/27 11:35:53;;;;;;;3.42;1.30;;;;;;;30.07;41.04;98480.75;1826216;77;20984;-59
2022/06/27 11:38:26;;;;;;;2.55;1.25;;;;;;;30.18;41.85;98485.58;1820823;77;20882;-60
2022/06/27 11:41:07;;;;;;;2.87;1.30;;;;;;;30.40;40.35;98480.88;1811504;77;21040;-62
2022/06/27 11:43:59;;;;;;;3.47;1.50;;;;;;;30.62;40.16;98475.90;1843245;77;20997;-57
2022/06/27 11:46:36;;;;;;;4.30;1.62;;;;;;;30.55;39.87;98486.27;1808699;79;20851;-62
2022/06/27 11:49:10;;;;;;;1.60;1.30;;;;;;;30.22;40.06;98486.36;1818822;79;20953;-60
2022/06/27 11:51:40;;;;;;;;;;;;;;;30.16;40.45;98478.30;1856568;77;20919;-61
2022/06/27 11:54:14;;;;;;;2.05;1.10;;;;;;;30.35;38.89;98473.03;1811197;77;20094;-62
2022/06/27 11:56:43;;;;;;;2.85;1.47;;;;;;;30.53;38.58;98461.78;1807546;79;21251;-58
2022/06/27 11:59:11;;;;;;;2.17;1.35;;;;;;;30.69;39.44;98459.86;1808953;79;21468;-60
2022/06/27 12:01:57;;;;;;;1.92;1.35;;;;;;;30.91;38.94;98468.10;1808877;79;21500;-62
2022/06/27 12:04:31;;;;;;;4.35;1.50;;;;;;;31.13;39.00;98460.33;1809005;79;20921;-61
2022/06/27 12:07:07;;;;;;;4.45;1.77;;;;;;;31.34;37.90;98461.42;1809321;79;21480;-63
2022/06/27 12:09:50;;;;;;;4.33;1.45;;;;;;;31.41;38.07;98461.33;1808624;79;21122;-63
2022/06/27 12:12:19;;;;;;;3.67;1.37;;;;;;;31.41;37.66;98455.20;1808759;79;20915;-62
2022/06/27 12:14:48;;;;;;;3.35;1.57;;;;;;;31.40;38.28;98459.75;1808519;79;20851;-62
2022/06/27 12:17:16;;;;;;;3.58;1.25;;;;;;;31.47;39.21;98456.91;1809148;79;20922;-60
2022/06/27 12:19:42;;;;;;;4.85;1.45;;;;;;;31.66;37.89;98449.30;1809055;79;21377;-59
2022/06/27 12:22:12;;;;;;;2.52;1.30;;;;;;;31.76;37.58;98450.54;1809015;79;21216;-62
2022/06/27 12:24:39;;;;;;;3.55;1.40;;;;;;;31.88;36.37;98449.16;1809266;79;20926;-63
2022/06/27 12:27:07;;;;;;;3.22;1.50;;;;;;;32.04;36.92;98450.70;1809191;79;21421;-63
2022/06/27 12:29:34;;;;;;;3.40;1.40;;;;;;;32.25;37.12;98445.39;1809050;79;20898;-61
2022/06/27 12:32:00;;;;;;;2.92;1.55;;;;;;;32.23;36.42;98449.98;1809255;79;21467;-61
2022/06/27 12:34:28;;;;;;;2.72;1.37;;;;;;;32.24;36.42;98448.78;1808900;79;21281;-61
2022/06/27 12:36:55;;;;;;;3.67;1.77;;;;;;;32.07;35.69;98442.16;1808839;79;20982;-62
2022/06/27 12:39:23;;;;;;;3.75;1.60;;;;;;;31.88;35.35;98449.16;1808968;79;20910;-61
2022/06/27 12:41:50;;;;;;;2.58;1.40;;;;;;;31.93;37.27;98446.52;1808869;79;20929;-58
2022/06/27 12:44:17;;;;;;;2.87;1.25;;;;;;;32.17;36.98;98451.68;1808998;79;20917;-62
2022/06/27 12:46:43;;;;;;;2.60;1.30;;;;;;;32.48;36.34;98443.20;1808983;79;21280;-59
2022/06/27 12:49:09;;;;;;;2.45;1.50;;;;;;;32.78;35.10;98448.58;1808856;79;21008;-59
2022/06/27 12:51:36;;;;;;;4.10;1.35;;;;;;;33.11;34.27;98442.58;1808879;79;20835;-62
2022/06/27 12:54:04;;;;;;;3.60;1.30;;;;;;;33.18;33.65;98436.27;1808810;79;20867;-61
2022/06/27 12:56:30;;;;;;;2.47;1.40;;;;;;;33.27;35.33;98433.69;1809021;79;20969;-58
2022/06/27 12:58:57;;;;;;;4.45;1.40;;;;;;;33.29;34.55;98443.75;1808974;79;21179;-60
2022/06/27 13:01:23;;;;;;;4.47;1.90;;;;;;;33.02;34.98;98436.99;1809144;79;21369;-62
2022/06/27 13:03:51;;;;;;;7.40;1.85;;;;;;;32.67;35.21;98441.09;1808891;79;20949;-62
2022/06/27 13:06:17;;;;;;;2.15;1.22;;;;;;;32.29;34.98;98444.11;1808867;79;20898;-60
2022/06/27 13:08:44;;;;;;;2.40;1.17;;;;;;;32.23;35.49;98444.44;1809015;79;21378;-59
2022/06/27 13:11:11;;;;;;;3.25;1.40;;;;;;;32.31;35.93;98440.34;1808899;79;22048;-62
2022/06/27 13:13:38;;;;;;;4.62;1.57;;;;;;;32.24;35.78;98440.47;1808835;79;20839;-62
2022/06/27 13:16:06;;;;;;;6.53;1.42;;;;;;;31.95;36.78;98438.56;1808961;79;20882;-60
2022/06/27 13:18:33;;;;;;;4.45;1.85;;;;;;;31.49;36.64;98448.38;1808609;79;20966;-59
2022/06/27 13:21:00;;;;;;;3.33;1.65;;;;;;;31.01;37.08;98450.59;1808668;79;20985;-61
2022/06/27 13:23:26;;;;;;;4.97;1.67;;;;;;;30.56;37.91;98448.53;1808875;79;21055;-60
2022/06/27 13:25:53;;;;;;;4.40;1.50;;;;;;;30.15;38.62;98450.52;1808885;79;20878;-63
2022/06/27 13:28:19;;;;;;;3.45;1.57;;;;;;;29.76;39.56;98444.72;1809221;79;20961;-60
2022/06/27 13:30:45;;;;;;;5.00;3.52;;;;;;;29.44;40.51;98449.62;1808909;79;20886;-63
2022/06/27 13:33:12;;;;;;;5.53;2.42;;;;;;;29.17;41.45;98444.44;1808998;79;20965;-61
2022/06/27 13:35:39;;;;;;;4.10;1.70;;;;;;;28.94;42.08;98438.64;1808963;79;21114;-59
2022/06/27 13:38:06;;;;;;;4.30;1.90;;;;;;;28.79;42.85;98435.74;1808783;79;20902;-59
2022/06/27 13:40:35;;;;;;;5.70;1.82;;;;;;;28.65;43.52;98441.30;1808913;79;20906;-63
2022/06/27 13:43:02;;;;;;;4.33;1.50;;;;;;;28.57;43.86;98446.63;1808836;79;20934;-63
2022/06/27 13:45:30;;;;;;;3.95;1.75;;;;;;;28.51;44.19;98441.31;1808830;79;20957;-62
2022/06/27 13:47:57;;;;;;;6.50;2.00;;;;;;;28.48;44.72;98442.31;1809909;79;21125;-60
2022/06/27 13:50:24;;;;;;;3.17;1.55;;;;;;;28.54;45.04;98432.27;1817508;79;20905;-64
2022/06/27 13:52:51;;;;;;;3.70;1.65;;;;;;;28.85;44.46;98423.14;1817538;79;20961;-60
2022/06/27 13:55:17;;;;;;;2.37;1.50;;;;;;;29.27;44.29;98425.70;1817512;79;20846;-61
2022/06/27 13:57:43;;;;;;;2.80;1.57;;;;;;;29.81;43.57;98432.45;1817551;79;20901;-64
2022/06/27 14:00:11;;;;;;;7.37;1.98;;;;;;;30.45;42.59;98431.29;1817531;79;21671;-61
2022/06/27 14:02:39;;;;;;;3.15;1.85;;;;;;;31.16;41.89;98424.92;1817345;79;21000;-62
2022/06/27 14:05:08;;;;;;;5.17;1.70;;;;;;;31.77;39.61;98423.64;1817401;79;21397;-58
2022/06/27 14:07:43;;;;;;;8.75;2.08;;;;;;;32.13;38.47;98424.62;1817677;79;20929;-60
2022/06/27 14:10:11;;;;;;;5.70;1.40;;;;;;;32.41;37.96;98419.94;1817748;79;21013;-60
2022/06/27 14:12:39;;;;;;;3.22;1.60;;;;;;;32.55;37.57;98415.37;1817506;79;21495;-63
2022/06/27 14:15:07;;;;;;;3.27;2.60;;;;;;;32.58;38.03;98418.06;1817640;79;20873;-59
2022/06/27 14:17:33;;;;;;;5.95;3.10;;;;;;;32.64;37.80;98416.37;1817586;79;20921;-57
2022/06/27 14:20:00;;;;;;;6.12;2.45;;;;;;;32.72;37.45;98413.63;1817755;79;21409;-58
2022/06/27 14:22:27;;;;;;;5.58;2.35;;;;;;;32.93;36.58;98412.39;1817726;79;20850;-61
2022/06/27 14:24:54;;;;;;;4.00;2.10;;;;;;;33.12;35.69;98410.86;1817563;79;21203;-60
2022/06/27 14:27:20;;;;;;;8.45;1.82;;;;;;;33.17;36.02;98408.94;1817615;79;20917;-61
2022/06/27 14:29:47;;;;;;;3.92;2.10;;;;;;;33.24;35.44;98410.16;1817907;79;21381;-63
2022/06/27 14:32:13;;;;;;;3.02;1.57;;;;;;;33.33;35.27;98405.59;1817677;79;20989;-60
2022/06/27 14:34:40;;;;;;;5.83;1.87;;;;;;;33.57;35.01;98415.97;1817611;79;20898;-60
2022/06/27 14:37:06;;;;;;;7.12;2.33;;;;;;;33.84;33.94;98410.95;1817579;79;21101;-64
2022/06/27 14:39:33;;;;;;;2.98;1.57;;;;;;;34.10;34.34;98414.70;1817619;79;20882;-63
2022/06/27 14:41:59;;;;;;;4.40;1.90;;;;;;;34.34;33.61;98413.27;1817637;79;20968;-62
2022/06/27 14:44:26;;;;;;;3.77;1.65;;;;;;;34.58;33.21;98411.81;1817558;79;20929;-62
2022/06/27 14:46:54;;;;;;;3.75;1.80;;;;;;;34.74;31.79;98408.96;1817560;79;21025;-61
2022/06/27 14:49:22;;;;;;;4.10;2.05;;;;;;;34.73;31.68;98412.98;1817525;79;22030;-64
2022/06/27 14:51:49;;;;;;;3.08;1.98;;;;;;;34.67;31.16;98410.55;1817497;79;21003;-60
2022/06/27 14:54:16;;;;;;;5.87;2.50;;;;;;;34.57;31.79;98413.05;1817654;79;20917;-63
2022/06/27 14:56:43;;;;;;;4.42;2.92;;;;;;;34.53;32.18;98417.91;1817825;79;21416;-60
2022/06/27 14:59:10;;;;;;;9.25;3.50;;;;;;;34.59;32.37;98413.38;1817570;79;20977;-63
2022/06/27 15:01:37;;;;;;;5.58;3.05;;;;;;;34.63;32.55;98411.27;1817530;79;21125;-61
2022/06/27 15:04:04;;;;;;;5.22;2.08;;;;;;;34.66;31.83;98402.05;1817599;79;20898;-59
2022/06/27 15:06:31;;;;;;;3.58;1.67;;;;;;;34.72;31.45;98400.28;1817517;79;20961;-62
2022/06/27 15:08:58;;;;;;;6.55;1.60;;;;;;;34.71;32.00;98398.73;1817493;79;20945;-59
2022/06/27 15:11:37;;;;;;;4.95;1.70;;;;;;;34.66;32.45;98402.05;1817665;79;20871;-59
2022/06/27 15:14:05;;;;;;;5.30;1.77;;;;;;;34.69;32.18;98400.40;1817664;79;21323;-61
2022/06/27 15:19:03;;;;;;;4.83;2.00;;;;;;;34.77;32.03;98405.30;1817531;79;20878;-61
2022/06/27 15:21:30;;;;;;;4.87;1.60;;;;;;;34.80;31.75;98397.48;1817629;79;21006;-59
2022/06/27 15:23:56;;;;;;;4.62;1.90;;;;;;;34.72;31.63;98398.13;1817619;79;20925;-60
2022/06/27 15:26:23;;;;;;;2.55;1.37;;;;;;;34.63;32.30;98397.37;1817500;79;21124;-60
2022/06/27 15:28:51;;;;;;;2.98;1.40;;;;;;;34.61;32.25;98407.37;1817735;79;21436;-63
2022/06/27 15:31:17;;;;;;;2.37;1.70;;;;;;;34.60;32.46;98400.27;1817517;79;20902;-62
2022/06/27 15:33:44;;;;;;;8.38;1.57;;;;;;;34.48;32.67;98398.97;1817485;79;21029;-60
2022/06/27 15:36:11;;;;;;;3.22;1.52;;;;;;;34.31;32.16;98401.63;1817546;79;20898;-59
2022/06/27 15:38:38;;;;;;;4.30;1.70;;;;;;;34.07;32.41;98399.67;1817503;79;21119;-59
2022/06/27 15:41:05;;;;;;;4.00;1.40;;;;;;;33.74;32.88;98401.67;1817540;79;20874;-60
2022/06/27 15:43:33;;;;;;;2.50;1.30;;;;;;;33.36;33.48;98397.00;1817562;79;21402;-62
2022/06/27 15:46:00;;;;;;;3.77;1.40;;;;;;;32.96;33.64;98396.28;1817433;79;20976;-59
2022/06/27 15:48:27;;;;;;;3.27;1.57;;;;;;;32.57;34.69;98392.16;1817597;79;21447;-59
2022/06/27 15:50:53;;;;;;;3.00;1.65;;;;;;;32.15;35.57;98398.65;1817818;79;21989;-60
2022/06/27 15:53:20;;;;;;;2.30;1.45;;;;;;;31.75;35.96;98394.17;1817468;79;20977;-63
2022/06/27 15:55:47;;;;;;;3.30;1.20;;;;;;;31.38;36.86;98393.75;1817527;79;20878;-60
2022/06/27 15:58:13;;;;;;;5.67;1.35;;;;;;;31.10;36.47;98394.95;1817820;79;21361;-62
2022/06/27 16:00:40;;;;;;;4.50;1.35;;;;;;;30.79;36.45;98391.98;1817545;79;20898;-61
2022/06/27 16:03:06;;;;;;;8.20;1.30;;;;;;;30.46;36.90;98394.15;1817840;79;21859;-59
2022/06/27 16:05:33;;;;;;;1.70;1.20;;;;;;;30.15;38.13;98386.98;1817413;79;21001;-61
2022/06/27 16:08:00;;;;;;;3.30;1.40;;;;;;;29.85;38.68;98399.27;1817478;79;20925;-63
2022/06/27 16:10:26;;;;;;;1.75;1.27;;;;;;;29.61;39.15;98400.42;1817591;79;20958;-63
2022/06/27 16:12:53;;;;;;;4.15;1.82;;;;;;;29.37;39.47;98398.63;1817616;79;21401;-63
2022/06/27 16:15:20;;;;;;;3.42;1.40;;;;;;;29.16;39.73;98392.45;1817495;79;21236;-62
2022/06/27 16:17:46;;;;;;;4.50;1.60;;;;;;;28.97;40.13;98397.88;1817553;79;20905;-59
2022/06/27 16:20:13;;;;;;;3.98;1.50;;;;;;;28.80;40.39;98391.84;1817497;79;20910;-62
2022/06/27 16:22:41;;;;;;;5.00;1.52;;;;;;;28.65;40.94;98386.19;1817467;79;21022;-59
2022/06/27 16:25:09;;;;;;;18.02;3.55;;;;;;;28.51;41.13;98383.45;1817488;79;20830;-63
2022/06/27 16:27:36;;;;;;;8.70;1.75;;;;;;;28.40;42.06;98394.53;1817461;79;21176;-63
2022/06/27 16:30:04;;;;;;;3.40;1.55;;;;;;;28.27;44.02;98394.74;1817711;79;21484;-62
2022/06/27 16:32:30;;;;;;;4.97;2.12;;;;;;;28.05;44.86;98388.48;1817483;79;21448;-59
2022/06/27 16:34:57;;;;;;;7.62;1.75;;;;;;;27.83;45.67;98389.67;1817777;78;21420;-62
2022/06/27 16:37:23;;;;;;;5.35;1.82;;;;;;;27.62;46.14;98397.35;1817496;79;20921;-59
2022/06/27 16:39:49;;;;;;;3.95;1.60;;;;;;;27.43;47.10;98391.43;1817583;79;21300;-59
2022/06/27 16:45:01;;;;;;;;;;;;;;;27.05;49.08;98393.70;1820298;79;20917;-60
2022/06/27 16:47:30;;;;;;;4.30;1.72;;;;;;;26.86;49.98;98392.66;1817498;79;20105;-63
2022/06/27 16:49:57;;;;;;;5.58;2.02;;;;;;;26.73;50.41;98396.91;1817596;79;20878;-60
2022/06/27 16:52:23;;;;;;;6.05;1.90;;;;;;;26.61;50.42;98401.37;1817484;79;21240;-63
2022/06/27 16:54:51;;;;;;;7.00;2.12;;;;;;;26.49;50.51;98398.95;1817641;79;21431;-58
2022/06/27 16:57:18;;;;;;;5.50;2.00;;;;;;;26.41;50.80;98400.08;1817573;79;20898;-61
2022/06/27 16:59:44;;;;;;;5.83;1.65;;;;;;;26.33;51.36;98397.11;1817516;79;20894;-60
2022/06/27 17:02:10;;;;;;;7.97;1.80;;;;;;;26.23;51.91;98396.45;1817497;79;20977;-61
2022/06/27 17:04:37;;;;;;;4.35;1.95;;;;;;;26.16;52.40;98401.90;1817567;79;21385;-59
2022/06/27 17:07:04;;;;;;;2.65;1.87;;;;;;;26.06;52.97;98403.95;1817385;79;20878;-59
2022/06/27 17:09:31;;;;;;;6.00;1.72;;;;;;;25.95;53.04;98401.72;1817556;79;20990;-62
2022/06/27 17:11:57;;;;;;;25.90;2.60;;;;;;;25.84;53.15;98404.98;1817439;79;20930;-59
2022/06/27 17:14:24;;;;;;;7.42;2.10;;;;;;;25.73;53.91;98400.19;1817564;79;20952;-60
2022/06/27 17:16:52;;;;;;;11.88;2.10;;;;;;;25.64;54.39;98395.62;1817759;79;21453;-62
2022/06/27 17:19:18;;;;;;;3.08;1.90;;;;;;;25.53;55.12;98396.09;1817630;79;21554;-61
2022/06/27 17:21:46;;;;;;;4.30;1.75;;;;;;;25.41;56.01;98400.48;1817762;79;21396;-63
2022/06/27 17:24:14;;;;;;;7.33;1.80;;;;;;;25.30;56.57;98402.31;1817453;79;20973;-62
2022/06/27 17:26:40;;;;;;;13.88;3.02;;;;;;;25.21;57.24;98401.83;1817448;79;20930;-62
2022/06/27 17:29:06;;;;;;;9.13;3.08;;;;;;;25.17;57.61;98402.39;1817623;79;22009;-62
2022/06/27 17:31:33;;;;;;;5.85;2.47;;;;;;;25.15;57.99;98397.87;1817396;79;20917;-59
2022/06/27 17:33:59;;;;;;;7.62;2.20;;;;;;;25.10;58.61;98392.14;1817840;79;20984;-60